sensor_id;sensor_type;location;lat;lon;timestamp;pressure;altitude;pressure_sealevel;temperature;humidity
73842;BME280;62184;52.006;5.924;2023-02-15T00:02:16;102143.63;;;8.54;60.73
73842;BME280;62184;52.006;5.924;2023-02-15T00:04:43;102149.84;;;8.56;60.94
73842;BME280;62184;52.006;5.924;2023-02-15T00:07:09;102149.84;;;8.56;60.86
73842;BME280;62184;52.006;5.924;2023-02-15T00:09:35;102145.44;;;8.58;60.82
73842;BME280;62184;52.006;5.924;2023-02-15T00:12:05;102148.09;;;8.60;60.63
73842;BME280;62184;52.006;5.924;2023-02-15T00:14:31;102144.56;;;8.62;60.59
73842;BME280;62184;52.006;5.924;2023-02-15T00:16:57;102139.25;;;8.62;60.40
73842;BME280;62184;52.006;5.924;2023-02-15T00:19:24;102138.34;;;8.62;60.61
73842;BME280;62184;52.006;5.924;2023-02-15T00:21:50;102147.22;;;8.61;60.58
73842;BME280;62184;52.006;5.924;2023-02-15T00:24:18;102141.88;;;8.58;60.82
73842;BME280;62184;52.006;5.924;2023-02-15T00:26:46;102148.97;;;8.56;60.84
73842;BME280;62184;52.006;5.924;2023-02-15T00:29:17;102147.19;;;8.51;61.15
73842;BME280;62184;52.006;5.924;2023-02-15T00:31:45;102148.97;;;8.51;60.97
73842;BME280;62184;52.006;5.924;2023-02-15T00:34:14;102146.25;;;8.42;60.31
73842;BME280;62184;52.006;5.924;2023-02-15T00:36:43;102141.78;;;8.35;59.94
73842;BME280;62184;52.006;5.924;2023-02-15T00:39:10;102131.97;;;8.29;59.68
73842;BME280;62184;52.006;5.924;2023-02-15T00:41:38;102137.31;;;8.28;59.75
73842;BME280;62184;52.006;5.924;2023-02-15T00:44:06;102139.03;;;8.23;59.79
73842;BME280;62184;52.006;5.924;2023-02-15T00:46:36;102137.25;;;8.17;59.69
73842;BME280;62184;52.006;5.924;2023-02-15T00:49:02;102131.00;;;8.12;59.54
73842;BME280;62184;52.006;5.924;2023-02-15T00:51:30;102128.28;;;8.06;59.53
73842;BME280;62184;52.006;5.924;2023-02-15T00:53:57;102122.97;;;8.01;59.60
73842;BME280;62184;52.006;5.924;2023-02-15T00:56:23;102128.25;;;7.98;59.73
73842;BME280;62184;52.006;5.924;2023-02-15T00:58:50;102117.56;;;7.92;59.91
73842;BME280;62184;52.006;5.924;2023-02-15T01:01:19;102118.41;;;7.88;60.05
73842;BME280;62184;52.006;5.924;2023-02-15T01:03:49;102118.44;;;7.90;60.00
73842;BME280;62184;52.006;5.924;2023-02-15T01:06:16;102106.91;;;7.89;59.54
73842;BME280;62184;52.006;5.924;2023-02-15T01:08:43;102110.44;;;7.88;59.87
73842;BME280;62184;52.006;5.924;2023-02-15T01:11:13;102109.56;;;7.86;59.55
73842;BME280;62184;52.006;5.924;2023-02-15T01:13:41;102104.22;;;7.83;59.59
73842;BME280;62184;52.006;5.924;2023-02-15T01:16:07;102108.63;;;7.81;59.58
73842;BME280;62184;52.006;5.924;2023-02-15T01:18:35;102102.41;;;7.79;59.37
73842;BME280;62184;52.006;5.924;2023-02-15T01:21:11;102104.19;;;7.79;59.95
73842;BME280;62184;52.006;5.924;2023-02-15T01:23:39;102096.22;;;7.79;60.23
73842;BME280;62184;52.006;5.924;2023-02-15T01:26:06;102093.53;;;7.77;60.83
73842;BME280;62184;52.006;5.924;2023-02-15T01:28:32;102085.53;;;7.74;60.88
73842;BME280;62184;52.006;5.924;2023-02-15T01:31:04;102095.28;;;7.73;61.32
73842;BME280;62184;52.006;5.924;2023-02-15T01:33:32;102084.66;;;7.75;61.52
73842;BME280;62184;52.006;5.924;2023-02-15T01:35:58;102086.44;;;7.76;61.57
73842;BME280;62184;52.006;5.924;2023-02-15T01:38:27;102089.09;;;7.79;61.47
73842;BME280;62184;52.006;5.924;2023-02-15T01:40:54;102082.91;;;7.80;61.29
73842;BME280;62184;52.006;5.924;2023-02-15T01:43:21;102084.69;;;7.80;61.46
73842;BME280;62184;52.006;5.924;2023-02-15T01:45:48;102079.34;;;7.80;61.55
73842;BME280;62184;52.006;5.924;2023-02-15T01:48:19;102088.22;;;7.80;61.55
73842;BME280;62184;52.006;5.924;2023-02-15T01:50:50;102083.81;;;7.81;61.62
73842;BME280;62184;52.006;5.924;2023-02-15T01:53:24;102081.13;;;7.81;61.53
73842;BME280;62184;52.006;5.924;2023-02-15T01:56:00;102081.16;;;7.82;61.38
73842;BME280;62184;52.006;5.924;2023-02-15T01:58:32;102082.94;;;7.82;61.41
73842;BME280;62184;52.006;5.924;2023-02-15T02:01:01;102078.47;;;7.79;61.20
73842;BME280;62184;52.006;5.924;2023-02-15T02:03:41;102075.81;;;7.78;61.29
73842;BME280;62184;52.006;5.924;2023-02-15T02:06:15;102074.91;;;7.75;61.43
73842;BME280;62184;52.006;5.924;2023-02-15T02:08:44;102074.03;;;7.75;61.20
73842;BME280;62184;52.006;5.924;2023-02-15T02:11:12;102066.94;;;7.75;60.75
73842;BME280;62184;52.006;5.924;2023-02-15T02:13:40;102064.28;;;7.77;60.56
73842;BME280;62184;52.006;5.924;2023-02-15T02:16:12;102062.53;;;7.78;60.32
73842;BME280;62184;52.006;5.924;2023-02-15T02:18:54;102058.97;;;7.77;60.19
73842;BME280;62184;52.006;5.924;2023-02-15T02:22:02;102044.78;;;7.77;60.14
73842;BME280;62184;52.006;5.924;2023-02-15T02:28:07;102052.66;;;7.63;59.98
73842;BME280;62184;52.006;5.924;2023-02-15T02:31:23;102049.97;;;7.57;60.33
73842;BME280;62184;52.006;5.924;2023-02-15T02:34:07;102041.97;;;7.52;60.36
73842;BME280;62184;52.006;5.924;2023-02-15T02:36:46;102043.75;;;7.52;60.52
73842;BME280;62184;52.006;5.924;2023-02-15T02:39:25;102042.84;;;7.50;60.59
73842;BME280;62184;52.006;5.924;2023-02-15T02:42:05;102041.03;;;7.47;60.74
73842;BME280;62184;52.006;5.924;2023-02-15T02:44:42;102041.91;;;7.46;60.88
73842;BME280;62184;52.006;5.924;2023-02-15T02:47:13;102039.25;;;7.45;60.83
73842;BME280;62184;52.006;5.924;2023-02-15T02:49:47;102041.00;;;7.43;60.75
73842;BME280;62184;52.006;5.924;2023-02-15T02:52:38;102029.47;;;7.41;60.68
73842;BME280;62184;52.006;5.924;2023-02-15T02:55:10;102025.00;;;7.38;60.74
73842;BME280;62184;52.006;5.924;2023-02-15T02:57:43;102026.78;;;7.36;60.96
73842;BME280;62184;52.006;5.924;2023-02-15T03:00:17;102025.00;;;7.33;61.05
73842;BME280;62184;52.006;5.924;2023-02-15T03:02:47;102019.59;;;7.30;60.98
73842;BME280;62184;52.006;5.924;2023-02-15T03:05:24;102020.47;;;7.29;61.24
73842;BME280;62184;52.006;5.924;2023-02-15T03:07:55;102018.72;;;7.30;61.13
73842;BME280;62184;52.006;5.924;2023-02-15T03:10:24;102017.88;;;7.31;61.01
73842;BME280;62184;52.006;5.924;2023-02-15T03:12:52;102016.94;;;7.30;61.00
73842;BME280;62184;52.006;5.924;2023-02-15T03:15:20;102016.94;;;7.29;61.10
73842;BME280;62184;52.006;5.924;2023-02-15T03:17:54;102008.09;;;7.28;61.11
73842;BME280;62184;52.006;5.924;2023-02-15T03:20:29;102006.31;;;7.29;60.88
73842;BME280;62184;52.006;5.924;2023-02-15T03:23:01;102014.28;;;7.27;60.73
73842;BME280;62184;52.006;5.924;2023-02-15T03:25:32;102003.63;;;7.24;60.81
73842;BME280;62184;52.006;5.924;2023-02-15T03:28:05;102000.94;;;7.21;60.74
73842;BME280;62184;52.006;5.924;2023-02-15T03:30:36;102002.72;;;7.22;60.73
73842;BME280;62184;52.006;5.924;2023-02-15T03:33:06;101995.66;;;7.23;60.63
73842;BME280;62184;52.006;5.924;2023-02-15T03:35:42;101997.41;;;7.22;60.44
73842;BME280;62184;52.006;5.924;2023-02-15T03:38:20;101988.53;;;7.19;60.17
73842;BME280;62184;52.006;5.924;2023-02-15T03:40:56;101984.09;;;7.16;60.19
73842;BME280;62184;52.006;5.924;2023-02-15T03:43:32;101981.41;;;7.13;60.09
73842;BME280;62184;52.006;5.924;2023-02-15T03:46:11;101980.50;;;7.13;59.93
73842;BME280;62184;52.006;5.924;2023-02-15T03:48:41;101984.06;;;7.13;59.49
73842;BME280;62184;52.006;5.924;2023-02-15T03:51:18;101977.84;;;7.10;59.71
73842;BME280;62184;52.006;5.924;2023-02-15T03:53:48;101981.31;;;7.04;59.74
73842;BME280;62184;52.006;5.924;2023-02-15T03:56:18;101969.81;;;7.00;60.04
73842;BME280;62184;52.006;5.924;2023-02-15T03:58:44;101976.88;;;7.00;59.67
73842;BME280;62184;52.006;5.924;2023-02-15T04:01:17;101974.19;;;6.97;59.65
73842;BME280;62184;52.006;5.924;2023-02-15T04:03:55;101969.75;;;6.93;59.73
73842;BME280;62184;52.006;5.924;2023-02-15T04:06:28;101975.88;;;6.86;60.01
73842;BME280;62184;52.006;5.924;2023-02-15T04:08:55;101978.47;;;6.77;60.45
73842;BME280;62184;52.006;5.924;2023-02-15T04:11:21;101974.88;;;6.73;60.62
73842;BME280;62184;52.006;5.924;2023-02-15T04:13:47;101981.06;;;6.72;60.80
73842;BME280;62184;52.006;5.924;2023-02-15T04:16:14;101978.41;;;6.72;60.66
73842;BME280;62184;52.006;5.924;2023-02-15T04:18:42;101973.97;;;6.71;60.48
73842;BME280;62184;52.006;5.924;2023-02-15T04:21:09;101972.19;;;6.70;60.89
73842;BME280;62184;52.006;5.924;2023-02-15T04:23:38;101962.44;;;6.68;60.67
73842;BME280;62184;52.006;5.924;2023-02-15T04:26:04;101961.53;;;6.66;60.97
73842;BME280;62184;52.006;5.924;2023-02-15T04:28:32;101963.28;;;6.65;60.88
73842;BME280;62184;52.006;5.924;2023-02-15T04:30:58;101959.72;;;6.61;61.28
73842;BME280;62184;52.006;5.924;2023-02-15T04:33:24;101962.34;;;6.58;61.29
73842;BME280;62184;52.006;5.924;2023-02-15T04:35:51;101964.13;;;6.58;61.50
73842;BME280;62184;52.006;5.924;2023-02-15T04:38:17;101967.66;;;6.58;61.31
73842;BME280;62184;52.006;5.924;2023-02-15T04:40:49;101964.09;;;6.56;61.23
73842;BME280;62184;52.006;5.924;2023-02-15T04:43:16;101967.63;;;6.52;61.33
73842;BME280;62184;52.006;5.924;2023-02-15T04:45:47;101965.84;;;6.53;61.39
73842;BME280;62184;52.006;5.924;2023-02-15T04:48:14;101963.19;;;6.53;61.55
73842;BME280;62184;52.006;5.924;2023-02-15T04:50:41;101961.41;;;6.50;61.42
73842;BME280;62184;52.006;5.924;2023-02-15T04:53:07;101961.38;;;6.49;61.56
73842;BME280;62184;52.006;5.924;2023-02-15T04:55:33;101960.47;;;6.48;61.35
73842;BME280;62184;52.006;5.924;2023-02-15T04:58:03;101955.16;;;6.47;61.21
73842;BME280;62184;52.006;5.924;2023-02-15T05:00:29;101953.38;;;6.46;61.44
73842;BME280;62184;52.006;5.924;2023-02-15T05:02:55;101954.25;;;6.46;61.37
73842;BME280;62184;52.006;5.924;2023-02-15T05:05:22;101956.03;;;6.46;61.20
73842;BME280;62184;52.006;5.924;2023-02-15T05:07:48;101948.03;;;6.41;61.35
73842;BME280;62184;52.006;5.924;2023-02-15T05:10:15;101951.50;;;6.37;61.31
73842;BME280;62184;52.006;5.924;2023-02-15T05:12:41;101950.63;;;6.34;61.52
73842;BME280;62184;52.006;5.924;2023-02-15T05:15:11;101955.84;;;6.29;61.69
73842;BME280;62184;52.006;5.924;2023-02-15T05:17:37;101959.38;;;6.27;61.83
73842;BME280;62184;52.006;5.924;2023-02-15T05:20:05;101950.53;;;6.26;61.73
73842;BME280;62184;52.006;5.924;2023-02-15T05:22:32;101946.97;;;6.24;61.53
73842;BME280;62184;52.006;5.924;2023-02-15T05:24:59;101944.28;;;6.19;61.48
73842;BME280;62184;52.006;5.924;2023-02-15T05:27:25;101946.94;;;6.19;61.53
73842;BME280;62184;52.006;5.924;2023-02-15T05:29:51;101945.16;;;6.21;61.16
73842;BME280;62184;52.006;5.924;2023-02-15T05:32:20;101946.06;;;6.23;60.86
73842;BME280;62184;52.006;5.924;2023-02-15T05:34:47;101947.84;;;6.23;60.64
73842;BME280;62184;52.006;5.924;2023-02-15T05:37:13;101937.22;;;6.21;60.69
73842;BME280;62184;52.006;5.924;2023-02-15T05:39:40;101938.06;;;6.17;60.56
73842;BME280;62184;52.006;5.924;2023-02-15T05:42:06;101927.41;;;6.14;60.73
73842;BME280;62184;52.006;5.924;2023-02-15T05:44:32;101924.75;;;6.13;60.73
73842;BME280;62184;52.006;5.924;2023-02-15T05:46:59;101922.94;;;6.12;60.62
73842;BME280;62184;52.006;5.924;2023-02-15T05:49:28;101929.13;;;6.08;60.58
73842;BME280;62184;52.006;5.924;2023-02-15T05:51:54;101925.53;;;6.06;60.75
73842;BME280;62184;52.006;5.924;2023-02-15T05:54:21;101929.03;;;6.03;60.70
73842;BME280;62184;52.006;5.924;2023-02-15T05:56:47;101936.13;;;6.03;60.54
73842;BME280;62184;52.006;5.924;2023-02-15T05:59:14;101925.47;;;5.98;60.81
73842;BME280;62184;52.006;5.924;2023-02-15T06:01:40;101928.97;;;5.94;60.90
73842;BME280;62184;52.006;5.924;2023-02-15T06:04:07;101931.59;;;5.93;60.81
73842;BME280;62184;52.006;5.924;2023-02-15T06:06:36;101934.19;;;5.90;60.88
73842;BME280;62184;52.006;5.924;2023-02-15T06:09:02;101942.09;;;5.86;61.08
73842;BME280;62184;52.006;5.924;2023-02-15T06:11:29;101934.16;;;5.85;61.30
73842;BME280;62184;52.006;5.924;2023-02-15T06:13:55;101930.63;;;5.84;61.22
73842;BME280;62184;52.006;5.924;2023-02-15T06:16:22;101937.63;;;5.81;61.38
73842;BME280;62184;52.006;5.924;2023-02-15T06:18:48;101935.84;;;5.80;61.35
73842;BME280;62184;52.006;5.924;2023-02-15T06:21:15;101941.16;;;5.80;61.24
73842;BME280;62184;52.006;5.924;2023-02-15T06:23:44;101933.19;;;5.78;61.58
73842;BME280;62184;52.006;5.924;2023-02-15T06:26:10;101936.72;;;5.79;61.29
73842;BME280;62184;52.006;5.924;2023-02-15T06:28:37;101934.97;;;5.79;61.33
73842;BME280;62184;52.006;5.924;2023-02-15T06:31:03;101933.19;;;5.78;61.11
73842;BME280;62184;52.006;5.924;2023-02-15T06:33:30;101929.63;;;5.76;61.17
73842;BME280;62184;52.006;5.924;2023-02-15T06:35:56;101943.72;;;5.72;61.44
73842;BME280;62184;52.006;5.924;2023-02-15T06:38:22;101940.19;;;5.73;61.37
73842;BME280;62184;52.006;5.924;2023-02-15T06:40:51;101940.19;;;5.73;61.53
73842;BME280;62184;52.006;5.924;2023-02-15T06:43:18;101936.66;;;5.73;61.37
73842;BME280;62184;52.006;5.924;2023-02-15T06:45:44;101937.50;;;5.72;61.44
73842;BME280;62184;52.006;5.924;2023-02-15T06:48:11;101943.69;;;5.71;61.59
73842;BME280;62184;52.006;5.924;2023-02-15T06:50:37;101940.13;;;5.67;61.69
73842;BME280;62184;52.006;5.924;2023-02-15T06:53:04;101941.91;;;5.68;61.53
73842;BME280;62184;52.006;5.924;2023-02-15T06:55:30;101932.19;;;5.70;61.28
73842;BME280;62184;52.006;5.924;2023-02-15T06:58:00;101940.13;;;5.70;61.30
73842;BME280;62184;52.006;5.924;2023-02-15T07:00:26;101921.59;;;5.69;61.41
73842;BME280;62184;52.006;5.924;2023-02-15T07:02:53;101930.38;;;5.66;61.48
73842;BME280;62184;52.006;5.924;2023-02-15T07:05:21;101920.66;;;5.65;61.80
73842;BME280;62184;52.006;5.924;2023-02-15T07:07:47;101918.88;;;5.64;61.91
73842;BME280;62184;52.006;5.924;2023-02-15T07:10:14;101925.91;;;5.62;62.05
73842;BME280;62184;52.006;5.924;2023-02-15T07:12:41;101912.69;;;5.64;62.44
73842;BME280;62184;52.006;5.924;2023-02-15T07:15:15;101913.63;;;5.67;62.42
73842;BME280;62184;52.006;5.924;2023-02-15T07:17:43;101922.50;;;5.72;62.42
73842;BME280;62184;52.006;5.924;2023-02-15T07:20:14;101915.47;;;5.74;62.48
73842;BME280;62184;52.006;5.924;2023-02-15T07:22:43;101919.06;;;5.79;62.21
73842;BME280;62184;52.006;5.924;2023-02-15T07:25:11;101910.31;;;5.85;62.32
73842;BME280;62184;52.006;5.924;2023-02-15T07:27:38;101902.44;;;5.93;62.20
73842;BME280;62184;52.006;5.924;2023-02-15T07:30:07;101905.16;;;5.99;62.17
73842;BME280;62184;52.006;5.924;2023-02-15T07:32:39;101902.53;;;6.03;62.03
73842;BME280;62184;52.006;5.924;2023-02-15T07:35:05;101905.22;;;6.06;61.99
73842;BME280;62184;52.006;5.924;2023-02-15T07:37:32;101894.63;;;6.08;61.88
73842;BME280;62184;52.006;5.924;2023-02-15T07:39:58;101891.13;;;6.09;62.02
73842;BME280;62184;52.006;5.924;2023-02-15T07:42:24;101899.09;;;6.10;62.10
73842;BME280;62184;52.006;5.924;2023-02-15T07:44:51;101893.75;;;6.09;62.09
73842;BME280;62184;52.006;5.924;2023-02-15T07:47:20;101893.75;;;6.09;62.62
73842;BME280;62184;52.006;5.924;2023-02-15T07:49:46;101896.44;;;6.10;62.54
73842;BME280;62184;52.006;5.924;2023-02-15T07:52:13;101896.44;;;6.13;62.57
73842;BME280;62184;52.006;5.924;2023-02-15T07:54:39;101898.25;;;6.16;62.62
73842;BME280;62184;52.006;5.924;2023-02-15T07:57:05;101895.63;;;6.20;62.76
73842;BME280;62184;52.006;5.924;2023-02-15T07:59:32;101891.25;;;6.22;62.83
73842;BME280;62184;52.006;5.924;2023-02-15T08:01:58;101885.97;;;6.26;62.94
73842;BME280;62184;52.006;5.924;2023-02-15T08:04:27;101878.91;;;6.29;63.15
73842;BME280;62184;52.006;5.924;2023-02-15T08:06:54;101877.22;;;6.34;63.16
73842;BME280;62184;52.006;5.924;2023-02-15T08:09:20;101873.69;;;6.38;63.22
73842;BME280;62184;52.006;5.924;2023-02-15T08:11:47;101876.41;;;6.43;63.34
73842;BME280;62184;52.006;5.924;2023-02-15T08:14:16;101876.44;;;6.49;63.33
73842;BME280;62184;52.006;5.924;2023-02-15T08:16:45;101876.50;;;6.52;63.53
73842;BME280;62184;52.006;5.924;2023-02-15T08:19:14;101873.88;;;6.58;63.60
73842;BME280;62184;52.006;5.924;2023-02-15T08:21:47;101873.91;;;6.64;63.57
73842;BME280;62184;52.006;5.924;2023-02-15T08:24:16;101868.69;;;6.73;63.35
73842;BME280;62184;52.006;5.924;2023-02-15T08:26:44;101868.72;;;6.81;63.51
73842;BME280;62184;52.006;5.924;2023-02-15T08:29:11;101860.81;;;6.88;63.34
73842;BME280;62184;52.006;5.924;2023-02-15T08:31:37;101860.88;;;6.97;63.42
73842;BME280;62184;52.006;5.924;2023-02-15T08:34:05;101858.25;;;7.05;63.43
73842;BME280;62184;52.006;5.924;2023-02-15T08:36:31;101857.44;;;7.11;63.37
73842;BME280;62184;52.006;5.924;2023-02-15T08:39:03;101846.84;;;7.18;63.60
73842;BME280;62184;52.006;5.924;2023-02-15T08:41:33;101844.22;;;7.30;63.42
73842;BME280;62184;52.006;5.924;2023-02-15T08:44:02;101844.31;;;7.40;63.36
73842;BME280;62184;52.006;5.924;2023-02-15T08:46:32;101841.66;;;7.47;63.37
73842;BME280;62184;52.006;5.924;2023-02-15T08:49:01;101841.72;;;7.53;63.35
73842;BME280;62184;52.006;5.924;2023-02-15T08:51:29;101841.75;;;7.67;63.11
73842;BME280;62184;52.006;5.924;2023-02-15T08:54:01;101844.44;;;7.81;63.48
73842;BME280;62184;52.006;5.924;2023-02-15T08:56:33;101836.47;;;7.90;63.16
73842;BME280;62184;52.006;5.924;2023-02-15T08:59:02;101849.81;;;8.00;63.03
73842;BME280;62184;52.006;5.924;2023-02-15T09:01:31;101839.16;;;8.12;62.89
73842;BME280;62184;52.006;5.924;2023-02-15T09:04:01;101843.63;;;8.21;62.56
73842;BME280;62184;52.006;5.924;2023-02-15T09:06:29;101836.53;;;8.29;62.41
73842;BME280;62184;52.006;5.924;2023-02-15T09:08:56;101834.75;;;8.39;62.23
73842;BME280;62184;52.006;5.924;2023-02-15T09:11:27;101843.66;;;8.51;62.20
73842;BME280;62184;52.006;5.924;2023-02-15T09:13:57;101836.53;;;8.66;62.00
73842;BME280;62184;52.006;5.924;2023-02-15T09:16:26;101837.38;;;8.81;61.62
73842;BME280;62184;52.006;5.924;2023-02-15T09:18:55;101831.16;;;8.90;61.28
73842;BME280;62184;52.006;5.924;2023-02-15T09:21:22;101829.34;;;8.98;61.11
73842;BME280;62184;52.006;5.924;2023-02-15T09:23:54;101831.13;;;9.08;60.78
73842;BME280;62184;52.006;5.924;2023-02-15T09:26:27;101828.44;;;9.22;60.53
73842;BME280;62184;52.006;5.924;2023-02-15T09:28:57;101836.41;;;9.33;60.20
73842;BME280;62184;52.006;5.924;2023-02-15T09:31:25;101833.69;;;9.42;59.95
73842;BME280;62184;52.006;5.924;2023-02-15T09:33:53;101842.53;;;9.53;59.53
73842;BME280;62184;52.006;5.924;2023-02-15T09:36:23;101831.84;;;9.60;59.33
73842;BME280;62184;52.006;5.924;2023-02-15T09:38:54;101838.91;;;9.71;59.25
73842;BME280;62184;52.006;5.924;2023-02-15T09:41:47;101829.88;;;9.90;59.24
73842;BME280;62184;52.006;5.924;2023-02-15T09:44:42;101819.97;;;10.07;58.59
73842;BME280;62184;52.006;5.924;2023-02-15T09:47:33;101824.34;;;10.17;58.04
73842;BME280;62184;52.006;5.924;2023-02-15T09:50:20;101818.94;;;10.29;57.67
73842;BME280;62184;52.006;5.924;2023-02-15T09:53:11;101818.81;;;10.40;57.23
73842;BME280;62184;52.006;5.924;2023-02-15T09:55:54;101820.50;;;10.52;57.10
73842;BME280;62184;52.006;5.924;2023-02-15T09:58:38;101826.69;;;10.60;56.60
73842;BME280;62184;52.006;5.924;2023-02-15T10:01:19;101826.53;;;10.72;56.81
73842;BME280;62184;52.006;5.924;2023-02-15T10:04:05;101828.22;;;10.88;56.53
73842;BME280;62184;52.006;5.924;2023-02-15T10:06:47;101824.50;;;11.01;55.68
73842;BME280;62184;52.006;5.924;2023-02-15T10:09:36;101826.22;;;11.07;55.66
73842;BME280;62184;52.006;5.924;2023-02-15T10:12:32;101822.56;;;11.15;55.21
73842;BME280;62184;52.006;5.924;2023-02-15T10:15:32;101822.34;;;11.32;54.76
73842;BME280;62184;52.006;5.924;2023-02-15T10:18:25;101816.88;;;11.43;54.16
73842;BME280;62184;52.006;5.924;2023-02-15T10:21:06;101820.31;;;11.52;54.32
73842;BME280;62184;52.006;5.924;2023-02-15T10:23:53;101815.66;;;11.68;53.21
73842;BME280;62184;52.006;5.924;2023-02-15T10:26:43;101812.84;;;11.76;53.04
73842;BME280;62184;52.006;5.924;2023-02-15T10:29:18;101825.22;;;11.86;52.36
73842;BME280;62184;52.006;5.924;2023-02-15T10:32:05;101818.84;;;11.95;51.94
73842;BME280;62184;52.006;5.924;2023-02-15T10:34:49;101816.94;;;12.01;51.81
73842;BME280;62184;52.006;5.924;2023-02-15T10:37:32;101817.66;;;12.15;51.46
73842;BME280;62184;52.006;5.924;2023-02-15T10:40:15;101814.81;;;12.26;51.15
73842;BME280;62184;52.006;5.924;2023-02-15T10:43:04;101806.59;;;12.38;51.05
73842;BME280;62184;52.006;5.924;2023-02-15T10:45:49;101813.63;;;12.42;50.43
73842;BME280;62184;52.006;5.924;2023-02-15T10:51:41;101810.16;;;12.39;49.84
73842;BME280;62184;52.006;5.924;2023-02-15T10:54:22;101809.19;;;12.41;50.21
73842;BME280;62184;52.006;5.924;2023-02-15T10:57:03;101804.53;;;12.54;50.08
73842;BME280;62184;52.006;5.924;2023-02-15T11:02:49;101804.66;;;12.94;49.42
73842;BME280;62184;52.006;5.924;2023-02-15T11:05:40;101812.56;;;13.01;49.11
73842;BME280;62184;52.006;5.924;2023-02-15T11:08:11;101805.22;;;13.11;49.11
73842;BME280;62184;52.006;5.924;2023-02-15T11:10:41;101802.34;;;13.20;48.93
73842;BME280;62184;52.006;5.924;2023-02-15T11:13:15;101797.75;;;13.25;48.35
73842;BME280;62184;52.006;5.924;2023-02-15T11:15:47;101804.75;;;13.34;48.63
73842;BME280;62184;52.006;5.924;2023-02-15T11:18:23;101795.56;;;13.47;48.26
73842;BME280;62184;52.006;5.924;2023-02-15T11:21:01;101798.84;;;13.60;48.23
73842;BME280;62184;52.006;5.924;2023-02-15T11:23:33;101799.38;;;13.75;47.56
73842;BME280;62184;52.006;5.924;2023-02-15T11:26:13;101799.13;;;13.88;47.71
73842;BME280;62184;52.006;5.924;2023-02-15T11:28:47;101794.34;;;14.00;47.23
73842;BME280;62184;52.006;5.924;2023-02-15T11:31:20;101795.13;;;14.05;46.41
73842;BME280;62184;52.006;5.924;2023-02-15T11:33:52;101791.34;;;14.14;46.22
73842;BME280;62184;52.006;5.924;2023-02-15T11:36:29;101776.81;;;14.21;46.50
73842;BME280;62184;52.006;5.924;2023-02-15T11:39:02;101782.53;;;14.43;46.28
73842;BME280;62184;52.006;5.924;2023-02-15T11:41:38;101779.16;;;14.70;46.25
73842;BME280;62184;52.006;5.924;2023-02-15T11:44:14;101776.59;;;14.98;45.36
73842;BME280;62184;52.006;5.924;2023-02-15T11:46:45;101764.50;;;15.13;45.10
73842;BME280;62184;52.006;5.924;2023-02-15T11:49:21;101772.22;;;15.25;44.55
73842;BME280;62184;52.006;5.924;2023-02-15T11:51:55;101768.28;;;15.37;44.68
73842;BME280;62184;52.006;5.924;2023-02-15T11:54:27;101754.59;;;15.44;43.69
73842;BME280;62184;52.006;5.924;2023-02-15T11:56:59;101750.78;;;15.51;43.96
73842;BME280;62184;52.006;5.924;2023-02-15T11:59:37;101743.28;;;15.62;43.59
73842;BME280;62184;52.006;5.924;2023-02-15T12:02:15;101740.19;;;15.75;43.15
73842;BME280;62184;52.006;5.924;2023-02-15T12:04:48;101733.53;;;15.86;42.65
73842;BME280;62184;52.006;5.924;2023-02-15T12:07:24;101738.25;;;15.80;41.87
73842;BME280;62184;52.006;5.924;2023-02-15T12:09:59;101733.16;;;15.71;42.39
73842;BME280;62184;52.006;5.924;2023-02-15T12:12:31;101722.94;;;15.82;42.73
73842;BME280;62184;52.006;5.924;2023-02-15T12:15:00;101718.84;;;15.96;41.87
73842;BME280;62184;52.006;5.924;2023-02-15T12:17:30;101707.19;;;15.96;41.68
73842;BME280;62184;52.006;5.924;2023-02-15T12:20:01;101704.50;;;15.96;41.96
73842;BME280;62184;52.006;5.924;2023-02-15T12:22:36;101699.56;;;16.08;42.00
73842;BME280;62184;52.006;5.924;2023-02-15T12:25:20;101694.59;;;16.23;41.86
73842;BME280;62184;52.006;5.924;2023-02-15T12:27:48;101698.88;;;16.28;41.32
73842;BME280;62184;52.006;5.924;2023-02-15T12:30:20;101700.47;;;16.34;41.04
73842;BME280;62184;52.006;5.924;2023-02-15T12:32:52;101696.97;;;16.32;41.36
73842;BME280;62184;52.006;5.924;2023-02-15T12:35:27;101692.19;;;16.40;41.14
73842;BME280;62184;52.006;5.924;2023-02-15T12:38:03;101692.72;;;16.50;41.01
73842;BME280;62184;52.006;5.924;2023-02-15T12:40:57;101688.88;;;16.57;40.44
73842;BME280;62184;52.006;5.924;2023-02-15T12:43:26;101690.53;;;16.61;40.77
73842;BME280;62184;52.006;5.924;2023-02-15T12:46:13;101692.31;;;16.62;40.54
73842;BME280;62184;52.006;5.924;2023-02-15T12:48:45;101690.13;;;16.73;40.64
73842;BME280;62184;52.006;5.924;2023-02-15T12:51:14;101686.66;;;16.93;40.69
73842;BME280;62184;52.006;5.924;2023-02-15T12:53:44;101688.78;;;17.08;39.97
73842;BME280;62184;52.006;5.924;2023-02-15T12:56:10;101692.84;;;17.19;40.04
73842;BME280;62184;52.006;5.924;2023-02-15T12:58:38;101686.25;;;17.27;39.57
73842;BME280;62184;52.006;5.924;2023-02-15T13:01:14;101678.88;;;17.32;39.16
73842;BME280;62184;52.006;5.924;2023-02-15T13:03:55;101677.78;;;17.36;39.52
73842;BME280;62184;52.006;5.924;2023-02-15T13:06:25;101667.91;;;17.35;39.96
73842;BME280;62184;52.006;5.924;2023-02-15T13:08:57;101670.84;;;17.52;39.28
73842;BME280;62184;52.006;5.924;2023-02-15T13:11:32;101666.59;;;17.68;38.92
73842;BME280;62184;52.006;5.924;2023-02-15T13:14:00;101659.56;;;17.64;38.59
73842;BME280;62184;52.006;5.924;2023-02-15T13:16:31;101658.81;;;17.61;38.42
73842;BME280;62184;52.006;5.924;2023-02-15T13:19:03;101652.84;;;17.51;38.33
73842;BME280;62184;52.006;5.924;2023-02-15T13:21:39;101651.66;;;17.36;38.33
73842;BME280;62184;52.006;5.924;2023-02-15T13:24:16;101653.78;;;17.28;38.84
73842;BME280;62184;52.006;5.924;2023-02-15T13:26:49;101652.09;;;17.26;38.75
73842;BME280;62184;52.006;5.924;2023-02-15T13:29:21;101650.31;;;17.25;38.75
73842;BME280;62184;52.006;5.924;2023-02-15T13:31:50;101655.81;;;17.23;39.23